MMLP/LAP METAR and TAF weather

Enter ICAO airport designator
Station Type Date Time Source
MMLP METAR 2022/12/04 05:40 UTC NOAA

MMLP 040540Z 00000KT 10SM SKC 19/15 A3006


Station Type Date Time Source
MMLP Decoded METAR 2022/12/04 05:40 UTC NOAA

La Paz International Airport, Mexico (MMLP) 24-04N 110-22W
Dec 04, 2022 - 12:40 AM EST / 2022.12.04 0540 UTC
Wind: Calm:0
Visibility: 10 mile(s):0
Sky conditions: clear
Temperature: 66 F (19 C)
Dew Point: 59 F (15 C)
Relative Humidity: 77%
Pressure (altimeter): 30.06 in. Hg (1017 hPa)
ob: MMLP 040540Z 00000KT 10SM SKC 19/15 A3006
cycle: 5

Station Type Date Time Source
MMLP TAF 2022/12/04 06:35 UTC NOAA

TAF MMLP 040328Z 0406/0506 30005KT P6SM SKC
FM041800 35008KT P6SM SCT250
FM050500 33005KT P6SM SKC

Example: see airport list